Time;durP1;ratioP1;P1;durP2;ratioP2;P2;SDS_P1;SDS_P2;PMS_P1;PMS_P2;Temp;Humidity;BMP_temperature;BMP_pressure;BME280_temperature;BME280_humidity;BME280_pressure;Samples;Min_cycle;Max_cycle;Signal;HPM_P1;HPM_P2
2023/11/01 00:00:11;;;;;;;;;0.00;0.00;;;;;23.63;46.25;100268.34;4881353;29;45305;-76
2023/11/01 00:02:36;;;;;;;;;0.00;0.00;;;;;23.54;46.27;100247.53;4881545;29;45359;-76
2023/11/01 00:05:01;;;;;;;;;1.00;1.00;;;;;23.63;46.15;100263.03;4881327;29;45478;-77
2023/11/01 00:07:27;;;;;;;;;0.00;0.00;;;;;23.57;46.08;100249.78;4881067;29;47582;-75
2023/11/01 00:09:52;;;;;;;;;0.33;0.00;;;;;23.56;46.10;100246.31;4881416;29;45443;-76
2023/11/01 00:12:18;;;;;;;;;0.33;0.33;;;;;23.60;46.01;100252.81;4881162;29;45950;-77
2023/11/01 00:14:43;;;;;;;;;0.00;0.00;;;;;23.47;46.34;100224.41;4881289;29;45388;-76
2023/11/01 00:17:08;;;;;;;;;0.00;0.00;;;;;23.49;46.20;100224.22;4881167;29;46332;-76
2023/11/01 00:19:34;;;;;;;;;1.67;1.00;;;;;23.58;45.98;100224.84;4881132;29;45295;-77
2023/11/01 00:21:59;;;;;;;;;2.00;2.00;;;;;23.35;46.33;100191.56;4881275;29;45250;-76
2023/11/01 00:24:24;;;;;;;;;3.00;0.00;;;;;23.58;46.25;100219.53;4881111;29;45306;-77
2023/11/01 00:26:50;;;;;;;;;0.00;0.00;;;;;23.58;45.89;100215.03;4880685;29;46079;-76
2023/11/01 00:29:15;;;;;;;;;0.00;0.00;;;;;23.43;46.09;100194.00;4880958;29;45291;-77
2023/11/01 00:31:41;;;;;;;;;1.67;0.67;;;;;23.54;45.66;100202.41;4881135;29;45612;-77
2023/11/01 00:34:06;;;;;;;;;0.00;0.00;;;;;23.57;46.02;100202.81;4881155;29;45269;-77
2023/11/01 00:36:32;;;;;;;;;0.67;0.00;;;;;23.34;45.79;100174.81;4879928;29;47025;-76
2023/11/01 00:38:57;;;;;;;;;1.00;1.00;;;;;23.50;45.93;100196.66;4880902;29;45232;-76
2023/11/01 00:41:22;;;;;;;;;2.00;1.00;;;;;23.40;45.80;100179.31;4880677;29;45213;-76
2023/11/01 00:43:48;;;;;;;;;1.00;0.00;;;;;23.16;45.91;100149.72;4880888;29;45449;-76
2023/11/01 00:46:13;;;;;;;;;1.67;0.00;;;;;23.38;46.13;100172.56;4880821;29;45232;-77
2023/11/01 00:48:38;;;;;;;;;1.00;1.00;;;;;23.37;46.02;100166.44;4880768;29;45425;-76
2023/11/01 00:51:04;;;;;;;;;0.33;0.33;;;;;23.48;46.00;100194.19;4880819;29;45271;-75
2023/11/01 00:53:30;;;;;;;;;0.00;0.00;;;;;23.49;45.59;100190.56;4880792;29;45264;-76
2023/11/01 00:55:55;;;;;;;;;1.00;1.00;;;;;23.27;45.80;100158.06;4878959;29;46958;-76
2023/11/01 00:58:22;;;;;;;;;1.00;1.00;;;;;23.39;45.67;100172.34;4880596;29;45401;-76
2023/11/01 01:00:48;;;;;;;;;2.00;0.67;;;;;23.56;45.81;100192.38;4880689;29;45363;-76
2023/11/01 01:03:13;;;;;;;;;1.00;1.00;;;;;23.50;45.71;100175.44;4880377;29;45476;-76
2023/11/01 01:05:38;;;;;;;;;2.00;0.00;;;;;23.32;45.81;100149.47;4880213;29;47037;-76
2023/11/01 01:08:04;;;;;;;;;1.67;0.67;;;;;23.03;45.74;100097.47;4880329;29;45397;-77
2023/11/01 01:10:29;;;;;;;;;3.33;1.00;;;;;23.50;45.68;100162.97;4880582;29;45423;-76
2023/11/01 01:12:55;;;;;;;;;1.67;1.00;;;;;23.44;45.82;100150.50;4880521;29;45400;-76
2023/11/01 01:15:20;;;;;;;;;0.33;0.33;;;;;23.55;46.04;100166.88;4880146;29;46711;-76
2023/11/01 01:17:46;;;;;;;;;1.00;1.00;;;;;23.54;45.52;100160.72;4880411;29;45384;-77
2023/11/01 01:20:11;;;;;;;;;1.00;0.00;;;;;23.40;45.77;100141.31;4880549;29;45449;-76
2023/11/01 01:22:36;;;;;;;;;1.67;0.67;;;;;23.54;45.83;100160.72;4880160;29;45214;-76
2023/11/01 01:25:02;;;;;;;;;0.67;0.33;;;;;23.38;45.62;100130.91;4880191;29;46298;-76
2023/11/01 01:27:27;;;;;;;;;0.00;0.00;;;;;23.36;45.68;100121.53;4880245;29;45445;-75
2023/11/01 01:29:53;;;;;;;;;0.00;0.00;;;;;23.41;45.85;100135.00;4880347;29;45461;-76
2023/11/01 01:32:18;;;;;;;;;1.00;1.00;;;;;23.41;45.54;100127.03;4880284;29;45512;-76
2023/11/01 01:34:43;;;;;;;;;0.00;0.00;;;;;23.29;45.78;100119.69;4878721;29;46215;-75
2023/11/01 01:37:09;;;;;;;;;2.33;2.00;;;;;23.39;45.64;100113.16;4879824;29;45382;-75
2023/11/01 01:39:34;;;;;;;;;0.00;0.00;;;;;23.54;45.29;100142.16;4880240;29;45309;-76
2023/11/01 01:41:59;;;;;;;;;0.67;0.00;;;;;23.28;45.65;100102.16;4880082;29;45366;-76
2023/11/01 01:44:25;;;;;;;;;1.00;1.00;;;;;23.53;45.54;100127.22;4880016;29;46077;-76
2023/11/01 01:46:50;;;;;;;;;0.00;0.00;;;;;23.53;45.31;100135.19;4881058;29;45413;-75
2023/11/01 01:49:16;;;;;;;;;0.00;0.00;;;;;23.51;45.64;100135.41;4883429;29;45401;-76
2023/11/01 01:51:41;;;;;;;;;1.00;1.00;;;;;23.42;45.59;100111.94;4883145;29;45488;-75
2023/11/01 01:54:07;;;;;;;;;0.67;0.67;;;;;23.45;45.49;100119.44;4883244;29;45370;-76
2023/11/01 01:56:33;;;;;;;;;1.00;1.00;;;;;23.39;45.58;100105.19;4883163;29;45417;-76
2023/11/01 01:58:58;;;;;;;;;1.00;1.00;;;;;23.52;45.37;100118.44;4883386;29;45368;-76
2023/11/01 02:01:28;;;;;;;;;1.33;1.00;;;;;23.46;45.25;100105.16;4883167;29;45360;-76
2023/11/01 02:03:54;;;;;;;;;2.33;2.00;;;;;23.28;45.23;100077.44;4883020;29;45324;-76
2023/11/01 02:06:19;;;;;;;;;0.00;0.00;;;;;23.38;45.72;100087.63;4882524;29;45601;-76
2023/11/01 02:08:44;;;;;;;;;0.67;0.33;;;;;23.45;45.27;100087.59;4883100;29;45941;-76
2023/11/01 02:11:10;;;;;;;;;3.00;1.33;;;;;23.49;45.31;100091.47;4883023;29;48638;-75
2023/11/01 02:13:35;;;;;;;;;0.00;0.00;;;;;23.49;45.24;100091.47;4882697;29;46649;-75
2023/11/01 02:16:00;;;;;;;;;0.00;0.00;;;;;23.55;45.33;100090.66;4882948;29;45455;-76
2023/11/01 02:18:26;;;;;;;;;1.00;1.00;;;;;23.46;45.19;100066.16;4883156;29;45356;-76
2023/11/01 02:20:52;;;;;;;;;0.00;0.00;;;;;23.50;45.35;100072.72;4882627;29;45421;-76
2023/11/01 02:23:17;;;;;;;;;0.67;0.67;;;;;23.22;45.36;100036.63;4882881;29;46373;-75
2023/11/01 02:25:43;;;;;;;;;0.33;0.33;;;;;23.31;45.28;100045.19;4882783;29;45465;-76
2023/11/01 02:28:11;;;;;;;;;2.00;0.00;;;;;23.31;45.63;100041.72;4882982;29;45432;-76
2023/11/01 02:30:37;;;;;;;;;0.00;0.00;;;;;23.49;45.24;100060.47;4882688;29;45611;-75
2023/11/01 02:33:02;;;;;;;;;0.00;0.00;;;;;23.10;45.53;100007.25;4882480;29;46384;-75
2023/11/01 02:35:28;;;;;;;;;2.00;1.00;;;;;23.53;45.16;100063.50;4882168;29;45459;-76
2023/11/01 02:37:53;;;;;;;;;1.00;0.00;;;;;23.52;45.05;100067.22;4882825;29;45437;-76
2023/11/01 02:40:19;;;;;;;;;1.00;1.00;;;;;23.48;45.60;100055.31;4882584;29;45543;-75
2023/11/01 02:42:47;;;;;;;;;0.67;0.67;;;;;23.46;44.99;100039.63;4882720;29;45342;-75
2023/11/01 02:45:12;;;;;;;;;0.00;0.00;;;;;23.47;45.48;100053.72;4882726;29;45435;-76
2023/11/01 02:47:39;;;;;;;;;2.00;0.67;;;;;23.51;45.35;100042.50;4881335;29;45307;-77
2023/11/01 02:50:06;;;;;;;;;0.67;0.00;;;;;23.20;45.07;99993.56;4882333;29;45245;-76
2023/11/01 02:52:34;;;;;;;;;1.00;1.00;;;;;23.51;45.52;100031.88;4882279;29;46620;-76
2023/11/01 02:55:00;;;;;;;;;0.33;0.00;;;;;23.49;45.25;100022.47;4882304;29;45257;-76
2023/11/01 02:57:26;;;;;;;;;1.67;1.00;;;;;23.52;45.57;100024.72;4881380;29;45425;-77
2023/11/01 02:59:51;;;;;;;;;0.67;0.33;;;;;23.26;45.09;99979.44;4881699;29;45369;-75
2023/11/01 03:02:17;;;;;;;;;0.67;0.00;;;;;23.46;45.31;100009.59;4882488;29;45994;-76
2023/11/01 03:04:42;;;;;;;;;2.00;0.00;;;;;23.36;45.48;99980.84;4881929;29;45539;-76
2023/11/01 03:07:07;;;;;;;;;3.33;0.00;;;;;23.45;45.09;99995.50;4882410;29;45448;-76
2023/11/01 03:09:33;;;;;;;;;0.67;0.67;;;;;22.96;45.25;99927.72;4882401;29;45332;-76
2023/11/01 03:11:58;;;;;;;;;2.00;1.00;;;;;23.43;45.17;99986.94;4882200;29;46287;-76
2023/11/01 03:14:24;;;;;;;;;1.00;1.00;;;;;23.49;45.28;99986.13;4882252;29;45344;-76
2023/11/01 03:16:49;;;;;;;;;0.00;0.00;;;;;23.44;45.22;99977.13;4881060;29;45866;-76
2023/11/01 03:19:14;;;;;;;;;2.00;1.00;;;;;23.48;45.28;99984.47;4881969;29;46115;-76
2023/11/01 03:21:41;;;;;;;;;0.33;0.33;;;;;23.24;45.27;99949.66;4882911;29;45637;-76
2023/11/01 03:24:06;;;;;;;;;0.00;0.00;;;;;23.37;45.10;99956.75;4881958;29;45468;-76
2023/11/01 03:26:32;;;;;;;;;1.00;1.00;;;;;23.36;45.05;99954.31;4882837;29;45397;-76
2023/11/01 03:28:57;;;;;;;;;1.67;1.00;;;;;23.43;45.38;99957.75;4882810;29;45270;-76
2023/11/01 03:31:22;;;;;;;;;1.00;1.00;;;;;23.48;45.02;99962.41;4881738;29;45601;-77
2023/11/01 03:33:48;;;;;;;;;2.00;0.33;;;;;23.42;45.01;99950.78;4881543;29;45233;-77
2023/11/01 03:36:13;;;;;;;;;0.67;0.00;;;;;23.40;45.22;99950.19;4882218;29;45462;-76
2023/11/01 03:38:39;;;;;;;;;0.00;0.00;;;;;23.26;45.09;99922.91;4882250;29;45369;-76
2023/11/01 03:41:04;;;;;;;;;1.00;0.00;;;;;23.49;45.36;99950.78;4881717;29;47145;-76
2023/11/01 03:43:30;;;;;;;;;0.67;0.00;;;;;23.33;45.24;99926.34;4881533;29;45512;-75
2023/11/01 03:45:55;;;;;;;;;1.00;1.00;;;;;23.38;44.80;99937.16;4881740;29;45336;-76
2023/11/01 03:48:21;;;;;;;;;0.00;0.00;;;;;23.32;44.92;99926.53;4881310;29;45483;-76
2023/11/01 03:50:46;;;;;;;;;1.00;1.00;;;;;23.35;45.15;99920.81;4881371;29;46201;-76
2023/11/01 03:53:13;;;;;;;;;1.33;0.00;;;;;23.04;44.97;99870.94;4881647;29;45342;-76
2023/11/01 03:55:38;;;;;;;;;0.67;0.67;;;;;23.44;44.86;99927.53;4881646;29;45309;-76
2023/11/01 03:58:03;;;;;;;;;1.00;0.00;;;;;23.44;45.22;99924.06;4881538;29;45341;-76
2023/11/01 04:00:29;;;;;;;;;1.00;1.00;;;;;23.25;45.28;99890.25;4881172;29;46139;-76
2023/11/01 04:02:54;;;;;;;;;0.00;0.00;;;;;23.49;45.08;99924.22;4880859;29;45485;-77
2023/11/01 04:05:20;;;;;;;;;0.00;0.00;;;;;23.49;45.16;99921.56;4881569;29;45719;-77
2023/11/01 04:07:45;;;;;;;;;2.00;0.00;;;;;23.40;45.34;99899.75;4881339;29;45629;-77
2023/11/01 04:10:11;;;;;;;;;0.00;0.00;;;;;23.39;45.27;99885.66;4880038;29;45289;-76
2023/11/01 04:12:36;;;;;;;;;1.00;1.00;;;;;23.33;44.97;99875.91;4881223;29;45301;-75
2023/11/01 04:15:06;;;;;;;;;3.00;0.67;;;;;23.49;45.05;99897.69;4881286;29;45350;-76
2023/11/01 04:17:32;;;;;;;;;1.00;1.00;;;;;23.35;45.10;99883.66;4881006;29;45403;-76
2023/11/01 04:19:58;;;;;;;;;3.00;1.00;;;;;23.43;45.28;99886.06;4880936;29;46617;-76
2023/11/01 04:22:27;;;;;;;;;0.00;0.00;;;;;23.48;45.14;99894.19;4881070;29;45433;-76
2023/11/01 04:24:54;;;;;;;;;1.00;0.33;;;;;23.26;45.18;99856.56;4881045;29;45448;-76
2023/11/01 04:27:20;;;;;;;;;1.00;0.00;;;;;23.48;45.17;99890.72;4880926;29;45482;-76
2023/11/01 04:29:45;;;;;;;;;0.00;0.00;;;;;23.47;45.19;99894.44;4880971;29;45920;-77
2023/11/01 04:32:11;;;;;;;;;0.00;0.00;;;;;23.47;45.12;99903.19;4880660;29;45335;-76
2023/11/01 04:34:36;;;;;;;;;1.33;0.00;;;;;22.80;45.09;99792.91;4881045;29;45447;-77
2023/11/01 04:37:02;;;;;;;;;0.00;0.00;;;;;23.14;45.40;99843.13;4881014;29;45364;-77
2023/11/01 04:39:28;;;;;;;;;1.00;1.00;;;;;23.39;45.39;99876.91;4880750;29;45410;-77
2023/11/01 04:41:53;;;;;;;;;0.00;0.00;;;;;23.27;45.39;99850.22;4880820;29;45415;-77
2023/11/01 04:44:18;;;;;;;;;0.00;0.00;;;;;23.46;45.29;99880.34;4879708;29;45359;-76
2023/11/01 04:46:44;;;;;;;;;0.00;0.00;;;;;23.44;45.40;99874.44;4880505;29;45447;-74
2023/11/01 04:49:10;;;;;;;;;1.00;0.00;;;;;22.80;45.21;99774.34;4880537;29;47327;-75
2023/11/01 04:51:35;;;;;;;;;0.00;0.00;;;;;23.23;45.16;99827.78;4880716;29;45436;-76
2023/11/01 04:54:06;;;;;;;;;3.00;1.67;;;;;23.22;44.92;99828.81;4880720;29;45285;-76
2023/11/01 04:56:32;;;;;;;;;2.00;1.00;;;;;23.36;44.90;99850.78;4880754;29;45549;-77
2023/11/01 04:58:57;;;;;;;;;0.00;0.00;;;;;23.28;44.90;99827.97;4880389;29;46565;-76
2023/11/01 05:01:23;;;;;;;;;1.00;0.00;;;;;23.15;44.92;99810.28;4880186;29;45340;-76
2023/11/01 05:03:49;;;;;;;;;1.00;1.00;;;;;23.11;45.03;99796.63;4880499;29;45483;-77
2023/11/01 05:06:14;;;;;;;;;0.00;0.00;;;;;23.21;44.90;99800.66;4879001;29;45537;-78
2023/11/01 05:08:40;;;;;;;;;0.67;0.33;;;;;23.16;44.90;99798.66;4880370;29;45453;-75
2023/11/01 05:11:05;;;;;;;;;0.00;0.00;;;;;23.45;45.16;99830.09;4879262;29;45560;-76
2023/11/01 05:13:30;;;;;;;;;1.00;1.00;;;;;23.45;45.20;99828.25;4880470;29;45462;-77
2023/11/01 05:15:56;;;;;;;;;2.33;1.00;;;;;22.74;44.95;99707.09;4880040;29;45230;-76
2023/11/01 05:18:24;;;;;;;;;0.00;0.00;;;;;23.45;44.84;99825.59;4880335;29;45380;-76
2023/11/01 05:20:49;;;;;;;;;0.00;0.00;;;;;23.26;45.04;99790.22;4880397;29;45415;-76
2023/11/01 05:23:14;;;;;;;;;0.00;0.00;;;;;23.35;45.04;99801.38;4883279;29;45284;-74
2023/11/01 05:25:40;;;;;;;;;0.67;0.67;;;;;22.94;45.03;99740.63;4883635;29;45308;-77
2023/11/01 05:28:05;;;;;;;;;0.00;0.00;;;;;23.16;45.38;99775.56;4883656;29;46093;-76
2023/11/01 05:30:31;;;;;;;;;0.00;0.00;;;;;22.98;45.11;99747.09;4883254;29;45367;-73
2023/11/01 05:32:56;;;;;;;;;0.00;0.00;;;;;23.47;44.99;99817.44;4883747;29;45356;-77
2023/11/01 05:35:21;;;;;;;;;1.00;1.00;;;;;23.45;45.14;99815.00;4883660;29;45404;-74
2023/11/01 05:37:47;;;;;;;;;0.00;0.00;;;;;23.32;45.10;99794.66;4883530;29;45703;-76
2023/11/01 05:40:15;;;;;;;;;0.67;0.67;;;;;23.47;45.00;99812.94;4883327;29;45277;-76
2023/11/01 05:42:43;;;;;;;;;2.00;1.33;;;;;23.36;45.06;99795.88;4883524;29;45274;-76
2023/11/01 05:45:11;;;;;;;;;0.00;0.00;;;;;23.47;45.07;99804.16;4883147;29;45395;-76
2023/11/01 05:47:37;;;;;;;;;0.00;0.00;;;;;23.16;44.95;99745.59;4883296;29;45316;-76
2023/11/01 05:50:06;;;;;;;;;0.67;0.00;;;;;23.39;44.73;99778.69;4883203;29;45511;-76
2023/11/01 05:52:32;;;;;;;;;0.67;0.00;;;;;23.24;45.04;99755.94;4883407;29;45391;-76
2023/11/01 05:54:58;;;;;;;;;0.00;0.00;;;;;23.46;44.97;99783.94;4883323;29;45653;-74
2023/11/01 05:57:23;;;;;;;;;0.67;0.00;;;;;23.45;44.99;99777.00;4882970;29;45310;-76
2023/11/01 05:59:49;;;;;;;;;0.00;0.00;;;;;23.42;44.78;99766.84;4882870;29;45285;-77
2023/11/01 06:02:14;;;;;;;;;0.00;0.00;;;;;23.43;44.90;99769.28;4883194;29;45325;-76
2023/11/01 06:04:40;;;;;;;;;0.00;0.00;;;;;23.22;45.06;99734.09;4883057;29;45460;-76
2023/11/01 06:07:05;;;;;;;;;0.00;0.00;;;;;23.44;44.97;99768.25;4883049;29;46997;-77
2023/11/01 06:09:30;;;;;;;;;1.00;0.00;;;;;22.74;44.85;99662.00;4883046;29;45248;-76
2023/11/01 06:11:57;;;;;;;;;0.33;0.00;;;;;23.30;45.09;99743.63;4883177;29;45281;-76
2023/11/01 06:14:23;;;;;;;;;0.00;0.00;;;;;23.45;45.24;99771.69;4882738;29;45624;-76
2023/11/01 06:16:49;;;;;;;;;0.00;0.00;;;;;22.62;44.87;99643.28;4882657;29;45309;-77
2023/11/01 06:19:14;;;;;;;;;1.00;1.00;;;;;23.34;45.13;99750.13;4882984;29;45382;-76
2023/11/01 06:21:39;;;;;;;;;1.00;0.00;;;;;23.29;44.86;99737.50;4881785;29;45437;-76
2023/11/01 06:24:05;;;;;;;;;0.00;0.00;;;;;23.38;44.89;99747.88;4882977;29;45546;-77
2023/11/01 06:26:31;;;;;;;;;0.00;0.00;;;;;23.17;44.63;99718.00;4882651;29;45394;-77
2023/11/01 06:28:56;;;;;;;;;0.00;0.00;;;;;23.35;45.02;99746.47;4882270;29;45299;-76
2023/11/01 06:31:22;;;;;;;;;0.00;0.00;;;;;23.38;44.58;99751.34;4882805;29;45350;-77
2023/11/01 06:33:47;;;;;;;;;0.00;0.00;;;;;23.42;45.06;99757.00;4881954;29;45308;-76
2023/11/01 06:36:13;;;;;;;;;0.33;0.33;;;;;23.44;45.02;99754.97;4881256;29;46122;-76
2023/11/01 06:38:38;;;;;;;;;1.00;1.00;;;;;23.44;44.64;99754.16;4882640;29;45343;-76
2023/11/01 06:41:05;;;;;;;;;1.00;0.00;;;;;23.25;44.79;99723.06;4882818;29;45303;-75
2023/11/01 06:43:31;;;;;;;;;0.00;0.00;;;;;22.80;44.70;99658.47;4882320;29;45319;-77
2023/11/01 06:45:56;;;;;;;;;1.67;0.33;;;;;23.12;44.95;99699.28;4882367;29;46236;-77
2023/11/01 06:48:21;;;;;;;;;0.33;0.33;;;;;23.00;45.02;99681.41;4882284;29;45469;-76
2023/11/01 06:50:47;;;;;;;;;2.00;0.00;;;;;23.38;44.81;99734.59;4882488;29;45469;-76
2023/11/01 06:53:12;;;;;;;;;0.00;0.00;;;;;23.32;44.66;99722.19;4882485;29;45463;-77
2023/11/01 06:55:38;;;;;;;;;0.00;0.00;;;;;23.33;44.48;99721.97;4882288;29;45417;-76
2023/11/01 06:58:03;;;;;;;;;1.00;0.00;;;;;23.40;44.51;99737.84;4881931;29;45512;-76
2023/11/01 07:00:29;;;;;;;;;0.00;0.00;;;;;23.12;44.74;99694.78;4882527;29;45396;-76
2023/11/01 07:02:55;;;;;;;;;3.00;0.00;;;;;23.33;44.66;99723.81;4882080;29;45457;-77
2023/11/01 07:05:20;;;;;;;;;1.00;0.00;;;;;23.31;44.45;99717.91;4882070;29;46729;-77
2023/11/01 07:07:45;;;;;;;;;0.00;0.00;;;;;23.28;44.71;99716.50;4882210;29;45362;-77
2023/11/01 07:10:11;;;;;;;;;1.00;0.00;;;;;23.26;44.95;99713.25;4882363;29;45476;-77
2023/11/01 07:12:36;;;;;;;;;0.00;0.00;;;;;23.31;44.69;99724.03;4881829;29;45436;-76
2023/11/01 07:15:02;;;;;;;;;1.00;0.00;;;;;23.33;44.85;99727.28;4882047;29;45461;-77
2023/11/01 07:17:27;;;;;;;;;2.00;0.33;;;;;23.27;44.74;99715.69;4882002;29;45317;-77
2023/11/01 07:19:55;;;;;;;;;3.33;1.00;;;;;23.29;44.76;99720.78;4882097;29;45346;-76
2023/11/01 07:22:21;;;;;;;;;1.00;0.00;;;;;23.43;45.02;99742.72;4882188;29;45576;-76
2023/11/01 07:24:47;;;;;;;;;0.67;0.00;;;;;23.39;44.95;99741.53;4881743;29;46917;-76
2023/11/01 07:27:12;;;;;;;;;0.00;0.00;;;;;23.35;44.92;99735.03;4881480;29;45450;-76
2023/11/01 07:29:37;;;;;;;;;0.67;0.67;;;;;23.27;44.67;99722.84;4882129;29;45291;-76
2023/11/01 07:32:03;;;;;;;;;0.67;0.00;;;;;23.44;44.98;99749.66;4881893;29;45542;-75
2023/11/01 07:34:29;;;;;;;;;1.00;1.00;;;;;23.28;44.64;99735.91;4881838;29;45431;-76
2023/11/01 07:36:55;;;;;;;;;2.00;0.00;;;;;23.28;44.93;99727.94;4881857;29;45303;-76
2023/11/01 07:39:20;;;;;;;;;0.00;0.00;;;;;23.37;44.82;99733.78;4881733;29;45301;-77
2023/11/01 07:41:45;;;;;;;;;1.00;1.00;;;;;23.26;45.02;99715.91;4880249;29;45519;-77
2023/11/01 07:44:12;;;;;;;;;0.00;0.00;;;;;23.36;45.17;99734.81;4881480;29;46189;-76
2023/11/01 07:46:37;;;;;;;;;0.00;0.00;;;;;23.40;44.54;99743.16;4881561;29;45284;-76
2023/11/01 07:49:03;;;;;;;;;0.67;0.67;;;;;23.44;45.06;99754.16;4881677;29;45354;-76
2023/11/01 07:51:28;;;;;;;;;1.00;0.00;;;;;23.42;44.37;99748.25;4881572;29;45398;-76
2023/11/01 07:53:53;;;;;;;;;0.00;0.00;;;;;23.44;44.71;99767.44;4880064;29;46442;-76
2023/11/01 07:56:19;;;;;;;;;0.00;0.00;;;;;23.25;44.50;99720.41;4881174;29;45736;-77
2023/11/01 07:58:45;;;;;;;;;1.00;0.00;;;;;23.32;45.08;99711.56;4881520;29;45456;-77
2023/11/01 08:01:11;;;;;;;;;0.00;0.00;;;;;23.43;44.64;99726.81;4881555;29;45431;-77
2023/11/01 08:03:37;;;;;;;;;1.00;1.00;;;;;23.23;44.79;99690.63;4881100;29;46300;-78
2023/11/01 08:06:03;;;;;;;;;1.33;0.00;;;;;23.42;44.99;99719.06;4881175;29;45499;-78
2023/11/01 08:08:29;;;;;;;;;0.00;0.00;;;;;23.17;44.55;99678.22;4881488;29;45437;-78
2023/11/01 08:10:54;;;;;;;;;1.33;0.00;;;;;23.42;44.77;99722.50;4881090;29;45303;-77
2023/11/01 08:13:20;;;;;;;;;0.00;0.00;;;;;23.10;44.37;99690.72;4880937;29;46836;-76
2023/11/01 08:15:45;;;;;;;;;0.33;0.33;;;;;23.42;44.83;99719.84;4881082;29;45198;-77
2023/11/01 08:18:10;;;;;;;;;0.33;0.00;;;;;23.33;44.68;99705.25;4881229;29;45681;-78
2023/11/01 08:20:36;;;;;;;;;0.00;0.00;;;;;23.26;44.76;99700.78;4881190;29;45274;-77
2023/11/01 08:23:02;;;;;;;;;0.00;0.00;;;;;23.44;44.70;99714.34;4881074;29;46386;-77
2023/11/01 08:25:27;;;;;;;;;0.00;0.00;;;;;23.44;44.47;99709.84;4880781;29;45512;-76
2023/11/01 08:27:53;;;;;;;;;0.00;0.00;;;;;23.23;44.41;99677.38;4881177;29;45383;-76
2023/11/01 08:30:18;;;;;;;;;0.00;0.00;;;;;23.22;44.42;99670.41;4881257;29;45436;-77
2023/11/01 08:32:44;;;;;;;;;0.00;0.00;;;;;23.36;44.50;99683.59;4880886;29;46398;-77
2023/11/01 08:35:10;;;;;;;;;0.00;0.00;;;;;23.43;44.60;99700.25;4880954;29;45401;-76
2023/11/01 08:37:37;;;;;;;;;1.00;1.00;;;;;22.98;44.48;99625.09;4880909;29;45430;-76
2023/11/01 08:40:03;;;;;;;;;0.33;0.00;;;;;23.33;44.79;99676.03;4880840;29;45353;-77
2023/11/01 08:42:29;;;;;;;;;0.00;0.00;;;;;23.10;44.59;99637.66;4880798;29;45322;-77
2023/11/01 08:44:55;;;;;;;;;0.33;0.33;;;;;23.36;44.45;99679.09;4880748;29;45242;-77
2023/11/01 08:47:33;;;;;;;;;0.00;0.00;;;;;23.44;44.33;99680.66;4880875;29;45369;-77
2023/11/01 08:49:59;;;;;;;;;0.00;0.00;;;;;23.44;44.46;99677.19;4880807;29;45516;-77
2023/11/01 08:52:25;;;;;;;;;0.00;0.00;;;;;23.21;44.66;99634.31;4880186;29;45711;-77
2023/11/01 08:54:50;;;;;;;;;0.00;0.00;;;;;23.42;44.95;99666.75;4880649;29;45368;-76
2023/11/01 08:57:15;;;;;;;;;0.00;0.00;;;;;23.42;44.78;99658.00;4880072;29;45372;-77
2023/11/01 08:59:42;;;;;;;;;0.00;0.00;;;;;22.83;44.79;99561.78;4880668;29;45293;-77
2023/11/01 09:02:07;;;;;;;;;0.00;0.00;;;;;22.83;44.55;99572.38;4880451;29;46257;-77
2023/11/01 09:04:32;;;;;;;;;0.00;0.00;;;;;23.33;44.53;99652.97;4880158;29;45433;-78
2023/11/01 09:06:58;;;;;;;;;0.00;0.00;;;;;23.22;44.52;99625.31;4880096;29;45293;-78
2023/11/01 09:09:24;;;;;;;;;1.00;0.00;;;;;23.31;44.52;99640.97;4880563;29;45344;-77
2023/11/01 09:11:49;;;;;;;;;1.00;1.00;;;;;23.42;44.52;99644.75;4880471;29;47380;-77
2023/11/01 09:14:14;;;;;;;;;0.00;0.00;;;;;23.20;44.41;99616.75;4880315;29;45238;-77
2023/11/01 09:16:40;;;;;;;;;2.00;0.00;;;;;23.42;44.48;99642.88;4880479;29;45226;-77
2023/11/01 09:19:05;;;;;;;;;0.00;0.00;;;;;23.41;44.48;99643.94;4880588;29;45575;-78
2023/11/01 09:21:35;;;;;;;;;0.00;0.00;;;;;23.42;44.48;99642.09;4879882;29;46296;-77
2023/11/01 09:24:00;;;;;;;;;0.00;0.00;;;;;23.29;44.51;99627.88;4880286;29;45407;-77
2023/11/01 09:26:25;;;;;;;;;0.00;0.00;;;;;23.42;44.78;99634.13;4880313;29;45392;-77
2023/11/01 09:28:50;;;;;;;;;0.00;0.00;;;;;23.33;44.53;99621.13;4880410;29;45452;-77
2023/11/01 09:31:16;;;;;;;;;1.00;1.00;;;;;22.82;44.64;99541.59;4880144;29;46053;-77
2023/11/01 09:33:43;;;;;;;;;0.00;0.00;;;;;23.43;44.33;99631.25;4880272;29;45353;-77
2023/11/01 09:36:11;;;;;;;;;0.00;0.00;;;;;23.37;44.30;99632.91;4879977;29;45446;-77
2023/11/01 09:38:36;;;;;;;;;2.00;0.00;;;;;23.25;44.66;99608.13;4880012;29;45486;-78
2023/11/01 09:41:07;;;;;;;;;0.00;0.00;;;;;23.37;44.58;99622.31;4880023;29;45737;-77
2023/11/01 09:43:34;;;;;;;;;0.00;0.00;;;;;23.29;44.39;99609.31;4880111;29;45428;-78
2023/11/01 09:46:01;;;;;;;;;2.00;1.00;;;;;23.45;44.54;99636.31;4879983;29;45342;-77
2023/11/01 09:48:28;;;;;;;;;1.00;1.00;;;;;23.37;44.38;99617.00;4880112;29;45292;-76
2023/11/01 09:50:57;;;;;;;;;0.67;0.33;;;;;23.43;44.29;99631.25;4879469;29;45337;-76
2023/11/01 09:53:22;;;;;;;;;1.67;0.00;;;;;23.35;44.74;99624.38;4879915;29;45356;-76
2023/11/01 09:55:48;;;;;;;;;1.00;1.00;;;;;23.32;44.72;99618.69;4880070;29;45392;-77
2023/11/01 09:58:19;;;;;;;;;2.00;0.00;;;;;23.33;44.18;99629.09;4880017;29;45424;-77
2023/11/01 10:00:45;;;;;;;;;0.00;0.00;;;;;21.98;44.37;99408.28;4879892;29;46390;-77
2023/11/01 10:03:11;;;;;;;;;1.33;1.00;;;;;23.22;44.53;99590.00;4879508;29;45390;-77
2023/11/01 10:05:37;;;;;;;;;1.00;0.00;;;;;23.44;44.61;99619.59;4879453;29;45376;-77
2023/11/01 10:08:02;;;;;;;;;0.00;0.00;;;;;23.19;44.57;99583.28;4881085;29;45484;-77
2023/11/01 10:10:30;;;;;;;;;0.67;0.33;;;;;23.00;44.49;99547.97;4883017;29;45580;-77
2023/11/01 10:12:55;;;;;;;;;0.00;0.00;;;;;23.38;44.64;99591.28;4874872;29;45360;-75
2023/11/01 10:15:21;;;;;;;;;0.00;0.00;;;;;23.35;44.51;99581.09;4867102;29;45348;-77
2023/11/01 10:17:48;;;;;;;;;0.00;0.00;;;;;23.34;44.80;99568.88;4863616;29;45288;-77
2023/11/01 10:20:27;;;;;;;;;0.00;0.00;;;;;23.12;44.58;99546.22;4863423;29;47339;-78
2023/11/01 10:22:53;;;;;;;;;0.00;0.00;;;;;23.30;44.41;99584.41;4863725;29;45400;-77
2023/11/01 10:25:19;;;;;;;;;1.67;0.33;;;;;22.98;44.69;99526.94;4864078;29;45417;-77
2023/11/01 10:27:46;;;;;;;;;0.00;0.00;;;;;23.38;44.56;99581.47;4864094;29;45212;-77
2023/11/01 10:30:12;;;;;;;;;0.00;0.00;;;;;23.34;44.39;99579.50;4863883;29;47040;-76
2023/11/01 10:32:37;;;;;;;;;1.00;1.00;;;;;23.32;44.40;99565.59;4862663;29;45326;-78
2023/11/01 10:35:10;;;;;;;;;0.67;0.67;;;;;23.39;44.75;99576.97;4863735;29;45229;-76
2023/11/01 10:37:35;;;;;;;;;0.67;0.67;;;;;23.39;44.47;99577.78;4864114;29;45405;-75
2023/11/01 10:40:05;;;;;;;;;1.67;0.67;;;;;23.43;44.62;99588.78;4863514;29;47007;-75
2023/11/01 10:42:31;;;;;;;;;0.00;0.00;;;;;23.42;44.65;99579.19;4863902;29;45387;-77
2023/11/01 10:44:56;;;;;;;;;0.00;0.00;;;;;23.44;44.36;99566.53;4864006;29;45293;-78
2023/11/01 10:47:22;;;;;;;;;0.00;0.00;;;;;23.14;44.33;99519.47;4863974;29;45362;-82
2023/11/01 10:49:50;;;;;;;;;0.00;0.00;;;;;23.31;44.22;99554.19;4863383;29;47374;-80
2023/11/01 10:52:15;;;;;;;;;0.33;0.33;;;;;23.45;44.17;99580.56;4863846;29;45170;-79
2023/11/01 10:54:45;;;;;;;;;0.00;0.00;;;;;23.38;44.66;99559.44;4870020;29;45343;-79
2023/11/01 10:57:13;;;;;;;;;0.00;0.00;;;;;23.31;44.92;99548.06;4881450;29;45485;-80
2023/11/01 10:59:49;;;;;;;;;0.00;0.00;;;;;23.33;44.75;99549.47;4882475;29;45392;-80
2023/11/01 11:02:34;;;;;;;;;0.00;0.00;;;;;23.44;44.78;99565.69;4882411;29;45257;-80
2023/11/01 11:05:07;;;;;;;;;0.00;0.00;;;;;23.32;44.90;99558.47;4880992;29;45275;-80
2023/11/01 11:07:48;;;;;;;;;0.00;0.00;;;;;23.45;44.70;99568.13;4881940;29;45435;-80
2023/11/01 11:10:22;;;;;;;;;0.00;0.00;;;;;23.46;44.83;99559.13;4882138;29;46438;-79
2023/11/01 11:13:18;;;;;;;;;1.33;0.00;;;;;23.47;44.62;99550.13;4880962;29;45419;-80
2023/11/01 11:16:10;;;;;;;;;0.33;0.33;;;;;23.47;44.62;99542.16;4881667;29;45329;-83
2023/11/01 11:18:41;;;;;;;;;0.67;0.00;;;;;23.50;44.58;99552.38;4880318;29;45804;-82
2023/11/01 11:21:07;;;;;;;;;0.00;0.00;;;;;23.33;44.62;99516.81;4879675;29;48775;-81
2023/11/01 11:23:34;;;;;;;;;1.00;1.00;;;;;23.53;44.37;99543.16;4880957;29;45329;-79
2023/11/01 11:26:01;;;;;;;;;0.67;0.00;;;;;23.48;44.28;99527.88;4881707;29;45217;-79